Andrews AFB, Maryland
Current Conditions -  °F | °C
As of 4:58 AM on Thursday 27 Nov 2014 (Local Time) from KADW Reporting Station
Broken Clouds Broken Clouds  
Wind Chill:   Ceiling: 8000
Heat Index:   Visibility: 10mi
Dew Point:   Wind: 3mph
Humidity: 89%   Direction: 270°W
Pressure: 30.01"   Gusts: NA
Location:  38.8°N, 76.87°W
Report Text: KADW 270958Z AUTO 27003KT 10SM SCT070 BKN080 02/00 A3001 RMK AO2 SLP172 T00180002 $
Loading
Personal Weather Stations






























Interactive Weather Map New forecast layout! Learn more

10-Day Weather Forecast

Advertisements
Track Severe Weather on mobile